Time;durP1;ratioP1;P1;durP2;ratioP2;P2;SDS_P1;SDS_P2;PMS_P1;PMS_P2;Temp;Humidity;BMP_temperature;BMP_pressure;BME280_temperature;BME280_humidity;BME280_pressure;Samples;Min_cycle;Max_cycle;Signal;HPM_P1;HPM_P2
2023/10/14 00:01:31;;;;;;;7.15;4.60;;;19.60;96.70;;;;;;4979638;28;20056;-74
2023/10/14 00:04:01;;;;;;;5.35;4.78;;;19.40;96.70;;;;;;4983206;28;20898;-74
2023/10/14 00:06:38;;;;;;;6.40;4.72;;;19.40;96.70;;;;;;4977569;28;20481;-74
2023/10/14 00:09:13;;;;;;;6.45;4.70;;;19.30;96.70;;;;;;4987069;28;20330;-73
2023/10/14 00:11:52;;;;;;;7.22;4.93;;;19.30;96.70;;;;;;4989809;28;20137;-74
2023/10/14 00:14:21;;;;;;;5.13;4.63;;;19.30;96.70;;;;;;4982767;28;20489;-73
2023/10/14 00:16:49;;;;;;;9.63;5.15;;;19.20;96.70;;;;;;4977707;28;20034;-74
2023/10/14 00:19:18;;;;;;;8.35;5.07;;;19.30;96.70;;;;;;4962863;28;20729;-74
2023/10/14 00:21:50;;;;;;;6.18;4.43;;;19.20;96.70;;;;;;4975993;28;20065;-74
2023/10/14 00:24:26;;;;;;;5.60;4.63;;;19.20;96.70;;;;;;4980823;28;20809;-74
2023/10/14 00:26:54;;;;;;;6.10;5.18;;;19.10;96.70;;;;;;4979942;28;20519;-74
2023/10/14 00:29:22;;;;;;;7.88;4.65;;;19.10;96.70;;;;;;4981030;28;20435;-74
2023/10/14 00:31:52;;;;;;;6.20;4.93;;;19.10;96.70;;;;;;4957737;28;20054;-73
2023/10/14 00:34:22;;;;;;;5.40;4.70;;;19.10;96.70;;;;;;4987239;28;20116;-74
2023/10/14 00:36:56;;;;;;;6.50;4.55;;;19.00;96.70;;;;;;4971162;28;20074;-75
2023/10/14 00:39:26;;;;;;;7.57;4.85;;;19.00;96.70;;;;;;4957438;28;20082;-77
2023/10/14 00:41:58;;;;;;;9.52;5.00;;;19.00;96.70;;;;;;4985847;28;20057;-77
2023/10/14 00:44:26;;;;;;;6.63;4.50;;;19.10;96.70;;;;;;4971703;28;20125;-76
2023/10/14 00:46:55;;;;;;;6.70;4.85;;;19.10;96.70;;;;;;4962835;28;20047;-76
2023/10/14 00:49:34;;;;;;;8.55;4.57;;;19.10;96.70;;;;;;4991764;28;20053;-77
2023/10/14 00:52:18;;;;;;;8.15;4.50;;;19.00;96.70;;;;;;4977657;28;20527;-76
2023/10/14 00:54:58;;;;;;;5.53;4.30;;;19.00;96.70;;;;;;4965277;28;20061;-78
2023/10/14 00:57:38;;;;;;;5.75;4.70;;;19.00;96.70;;;;;;4960838;28;20047;-77
2023/10/14 01:00:11;;;;;;;8.73;4.82;;;19.00;96.70;;;;;;4973610;28;20065;-76
2023/10/14 01:02:40;;;;;;;6.40;4.63;;;18.90;96.70;;;;;;4970217;28;20058;-76
2023/10/14 01:05:13;;;;;;;6.75;4.55;;;18.90;96.70;;;;;;4955480;28;20077;-76
2023/10/14 01:07:44;;;;;;;6.30;5.18;;;18.90;96.70;;;;;;4969187;28;20464;-76
2023/10/14 01:10:13;;;;;;;5.90;5.30;;;18.90;96.70;;;;;;4962541;28;20386;-76
2023/10/14 01:12:45;;;;;;;6.55;4.60;;;18.90;96.70;;;;;;4965099;28;20047;-77
2023/10/14 01:15:23;;;;;;;7.65;4.60;;;18.80;96.70;;;;;;4975617;28;20039;-76
2023/10/14 01:17:52;;;;;;;7.88;4.63;;;18.70;96.70;;;;;;4946620;28;20051;-78
2023/10/14 01:22:56;;;;;;;8.98;5.45;;;18.70;96.70;;;;;;4971867;28;20116;-77
2023/10/14 01:25:31;;;;;;;7.97;4.72;;;18.60;96.70;;;;;;4965167;28;20125;-77
2023/10/14 01:28:08;;;;;;;5.72;4.78;;;18.60;96.70;;;;;;4968116;28;20565;-77
2023/10/14 01:30:46;;;;;;;5.97;4.60;;;18.60;96.70;;;;;;4972395;28;20973;-77
2023/10/14 01:33:20;;;;;;;5.93;4.50;;;18.50;96.70;;;;;;4966128;28;20106;-77
2023/10/14 01:35:51;;;;;;;5.60;4.40;;;18.50;96.70;;;;;;4962121;28;20564;-76
2023/10/14 01:38:24;;;;;;;5.22;4.25;;;18.50;96.70;;;;;;4964457;28;20070;-77
2023/10/14 01:40:52;;;;;;;5.85;4.63;;;18.40;96.70;;;;;;4965543;28;20051;-77
2023/10/14 01:43:30;;;;;;;7.63;4.60;;;18.40;96.70;;;;;;4973997;28;20077;-77
2023/10/14 01:48:38;;;;;;;8.23;4.38;;;18.30;96.70;;;;;;4968734;28;20046;-77
2023/10/14 01:51:06;;;;;;;5.15;4.43;;;18.30;96.70;;;;;;4969733;28;20050;-77
2023/10/14 01:53:38;;;;;;;5.07;4.38;;;18.30;96.70;;;;;;4965740;28;20116;-77
2023/10/14 01:56:06;;;;;;;6.70;4.38;;;18.30;96.70;;;;;;4948969;28;20109;-77
2023/10/14 01:58:36;;;;;;;5.75;4.40;;;18.30;96.70;;;;;;4971769;28;20146;-77
2023/10/14 02:03:46;;;;;;;5.47;4.30;;;18.20;96.70;;;;;;4962136;28;20039;-77
2023/10/14 02:06:20;;;;;;;9.63;5.22;;;18.10;96.70;;;;;;4951443;28;20308;-77
2023/10/14 02:08:51;;;;;;;10.45;5.10;;;18.10;96.70;;;;;;4975319;28;20400;-77
2023/10/14 02:11:20;;;;;;;6.75;4.75;;;18.10;96.70;;;;;;4970479;28;20513;-77
2023/10/14 02:13:50;;;;;;;9.48;5.82;;;17.90;96.70;;;;;;4968122;28;20049;-77
2023/10/14 02:16:24;;;;;;;8.27;5.07;;;18.00;96.70;;;;;;4966629;28;20054;-77
2023/10/14 02:19:17;;;;;;;7.80;5.18;;;18.00;96.70;;;;;;4974090;28;20042;-77
2023/10/14 02:21:46;;;;;;;6.35;4.88;;;18.00;96.70;;;;;;4984556;28;20054;-77
2023/10/14 02:24:18;;;;;;;7.07;5.45;;;18.00;96.70;;;;;;4967014;28;21112;-77
2023/10/14 02:26:48;;;;;;;8.73;5.78;;;18.00;96.70;;;;;;4977157;28;20397;-77
2023/10/14 02:29:19;;;;;;;6.63;4.88;;;18.00;96.70;;;;;;4980532;28;20512;-77
2023/10/14 02:31:47;;;;;;;7.75;5.13;;;17.90;96.70;;;;;;4981860;28;20066;-77
2023/10/14 02:34:18;;;;;;;7.00;4.80;;;17.90;96.70;;;;;;4980330;28;20046;-77
2023/10/14 02:36:49;;;;;;;8.30;5.20;;;17.80;96.70;;;;;;4985066;28;20046;-77
2023/10/14 02:39:27;;;;;;;7.95;5.03;;;17.70;96.70;;;;;;4982291;28;20105;-77
2023/10/14 02:44:43;;;;;;;7.57;5.03;;;17.60;96.70;;;;;;4967451;28;20061;-76
2023/10/14 02:47:13;;;;;;;9.43;5.22;;;17.50;96.70;;;;;;4986844;28;20173;-76
2023/10/14 02:49:42;;;;;;;8.60;4.68;;;17.60;96.70;;;;;;4978533;28;20050;-77
2023/10/14 02:52:12;;;;;;;7.32;4.72;;;17.50;96.70;;;;;;4971556;28;20572;-77
2023/10/14 02:54:45;;;;;;;6.85;4.88;;;17.50;96.70;;;;;;4972914;28;20057;-77
2023/10/14 02:57:27;;;;;;;8.23;4.40;;;17.60;96.70;;;;;;4970815;28;20054;-77
2023/10/14 02:59:56;;;;;;;7.38;4.80;;;17.60;96.70;;;;;;4967662;28;20207;-77
2023/10/14 03:02:26;;;;;;;9.73;4.82;;;17.60;96.70;;;;;;4974746;28;20050;-77
2023/10/14 03:07:30;;;;;;;8.50;5.20;;;17.60;96.70;;;;;;4980817;28;20733;-76
2023/10/14 03:12:48;;;;;;;11.20;5.05;;;17.50;96.70;;;;;;4981813;28;20066;-77
2023/10/14 03:15:19;;;;;;;11.35;5.57;;;17.50;96.70;;;;;;4968731;28;20051;-76
2023/10/14 03:17:58;;;;;;;9.02;6.95;;;17.40;96.70;;;;;;4950276;28;20526;-77
2023/10/14 03:22:57;;;;;;;8.40;6.78;;;17.40;96.70;;;;;;4980468;28;20061;-77
2023/10/14 03:25:29;;;;;;;9.18;6.78;;;17.40;96.70;;;;;;4968692;28;20046;-75
2023/10/14 03:28:11;;;;;;;6.25;5.60;;;17.40;96.70;;;;;;4969683;28;20055;-75
2023/10/14 03:30:44;;;;;;;9.68;5.43;;;17.40;96.70;;;;;;4976136;28;20133;-75
2023/10/14 03:33:14;;;;;;;9.70;5.70;;;17.40;96.70;;;;;;4987089;28;20046;-75
2023/10/14 03:35:43;;;;;;;8.05;6.18;;;17.50;96.70;;;;;;4962659;28;20514;-75
2023/10/14 03:38:15;;;;;;;7.72;5.93;;;17.50;96.70;;;;;;4984395;28;20042;-75
2023/10/14 03:43:16;;;;;;;8.25;5.45;;;17.30;96.70;;;;;;4985999;28;20062;-77
2023/10/14 03:46:04;;;;;;;7.68;5.38;;;17.40;96.70;;;;;;4977444;28;20731;-77
2023/10/14 03:48:37;;;;;;;7.57;5.22;;;17.30;96.70;;;;;;4981388;28;20050;-77
2023/10/14 03:51:05;;;;;;;7.47;5.28;;;17.30;96.70;;;;;;4980393;28;20074;-77
2023/10/14 03:53:34;;;;;;;6.80;4.70;;;17.30;96.70;;;;;;4967421;28;20129;-76
2023/10/14 03:56:03;;;;;;;10.15;5.35;;;17.20;96.70;;;;;;4994437;28;20216;-76
2023/10/14 03:58:32;;;;;;;7.47;4.72;;;17.30;96.70;;;;;;5001759;28;20055;-77
2023/10/14 04:01:04;;;;;;;8.32;5.78;;;17.40;96.70;;;;;;4975512;28;20508;-77
2023/10/14 04:03:41;;;;;;;7.85;4.97;;;17.40;96.70;;;;;;4982417;28;20058;-77
2023/10/14 04:06:13;;;;;;;6.15;5.10;;;17.40;96.70;;;;;;4995654;28;20039;-77
2023/10/14 04:08:52;;;;;;;11.23;5.57;;;17.40;96.70;;;;;;4996659;28;20048;-76
2023/10/14 04:11:35;;;;;;;9.68;5.07;;;17.40;96.70;;;;;;4995726;28;20407;-77
2023/10/14 04:14:13;;;;;;;7.07;5.38;;;17.30;96.70;;;;;;4992818;28;20495;-76
2023/10/14 04:19:37;;;;;;;6.50;5.55;;;17.20;96.70;;;;;;4982938;28;20592;-77
2023/10/14 04:22:25;;;;;;;6.75;5.43;;;17.20;96.70;;;;;;5002966;28;20083;-77
2023/10/14 04:25:08;;;;;;;7.60;5.05;;;17.30;96.70;;;;;;4979266;28;20469;-76
2023/10/14 04:30:39;;;;;;;9.70;5.65;;;17.40;96.70;;;;;;4994123;28;20465;-77
2023/10/14 04:33:33;;;;;;;7.95;5.32;;;17.30;96.70;;;;;;4981635;28;20058;-77
2023/10/14 04:38:42;;;;;;;8.10;6.80;;;17.30;96.70;;;;;;4972494;28;20056;-78
2023/10/14 04:41:14;;;;;;;18.73;13.13;;;17.30;96.70;;;;;;4976845;28;20057;-76
2023/10/14 04:44:00;;;;;;;16.60;11.65;;;17.30;96.70;;;;;;4971665;28;20137;-77
2023/10/14 04:46:32;;;;;;;17.20;10.93;;;17.30;96.70;;;;;;5006128;28;20041;-77
2023/10/14 04:49:08;;;;;;;14.15;9.32;;;17.20;96.70;;;;;;4986943;28;20046;-77
2023/10/14 04:51:39;;;;;;;9.82;7.70;;;17.10;96.70;;;;;;4981705;28;20061;-77
2023/10/14 04:54:09;;;;;;;11.20;6.88;;;17.10;96.70;;;;;;4966819;28;20133;-78
2023/10/14 04:56:38;;;;;;;9.23;6.50;;;17.10;96.70;;;;;;4953427;28;20061;-77
2023/10/14 04:59:08;;;;;;;8.75;6.10;;;17.00;96.70;;;;;;4978098;28;20519;-76
2023/10/14 05:01:36;;;;;;;10.25;5.95;;;17.00;96.70;;;;;;4981564;28;20061;-77
2023/10/14 05:04:08;;;;;;;10.60;5.90;;;17.00;96.70;;;;;;4975860;28;20054;-77
2023/10/14 05:06:40;;;;;;;11.13;6.15;;;17.00;96.70;;;;;;4972528;28;20046;-77
2023/10/14 05:09:25;;;;;;;11.85;6.45;;;17.00;96.70;;;;;;4979432;28;20054;-77
2023/10/14 05:11:56;;;;;;;11.95;7.40;;;17.10;96.70;;;;;;4974073;28;20097;-77
2023/10/14 05:14:37;;;;;;;12.68;7.30;;;17.10;96.70;;;;;;4992503;28;20042;-77
2023/10/14 05:17:14;;;;;;;12.20;7.63;;;17.20;96.70;;;;;;4980308;28;20054;-77
2023/10/14 05:19:43;;;;;;;8.68;6.15;;;17.20;96.70;;;;;;4992621;28;20543;-76
2023/10/14 05:22:19;;;;;;;10.90;6.10;;;17.10;96.70;;;;;;4987710;28;20519;-77
2023/10/14 05:24:48;;;;;;;9.88;5.70;;;17.10;96.70;;;;;;4983113;28;20046;-77
2023/10/14 05:27:17;;;;;;;8.65;6.28;;;17.10;96.70;;;;;;4978411;28;20074;-79
2023/10/14 05:29:54;;;;;;;6.20;4.85;;;17.20;96.70;;;;;;4969080;28;20636;-78
2023/10/14 05:32:30;;;;;;;6.68;5.35;;;17.10;96.70;;;;;;4963528;28;20053;-78
2023/10/14 05:34:59;;;;;;;7.82;4.55;;;17.10;96.70;;;;;;4986836;28;20125;-79
2023/10/14 05:37:27;;;;;;;5.85;4.55;;;17.10;96.70;;;;;;4972185;28;20092;-78
2023/10/14 05:39:55;;;;;;;6.88;4.72;;;17.10;96.70;;;;;;4980065;28;20069;-78
2023/10/14 05:42:24;;;;;;;6.72;4.60;;;17.10;96.70;;;;;;4985481;28;20402;-79
2023/10/14 05:44:57;;;;;;;8.40;4.53;;;17.10;96.70;;;;;;4991034;28;20035;-79
2023/10/14 05:47:27;;;;;;;5.30;4.40;;;17.10;96.70;;;;;;4983516;28;20042;-79
2023/10/14 05:49:55;;;;;;;8.15;4.97;;;17.20;96.70;;;;;;4969827;28;20053;-78
2023/10/14 05:52:24;;;;;;;8.85;5.03;;;17.20;96.70;;;;;;4983385;28;20056;-80
2023/10/14 05:54:53;;;;;;;5.90;4.82;;;17.10;96.70;;;;;;4968115;28;20069;-80
2023/10/14 05:57:22;;;;;;;6.63;4.78;;;17.10;96.70;;;;;;4971052;28;20126;-79
2023/10/14 05:59:50;;;;;;;9.90;4.40;;;17.10;96.70;;;;;;4973456;28;20030;-78
2023/10/14 06:02:20;;;;;;;8.63;5.00;;;17.10;96.70;;;;;;4968593;28;20058;-80
2023/10/14 06:04:50;;;;;;;13.52;5.38;;;17.10;96.70;;;;;;4966505;28;20042;-78
2023/10/14 06:07:18;;;;;;;15.30;4.90;;;17.10;96.70;;;;;;4964595;28;20047;-78
2023/10/14 06:09:47;;;;;;;8.65;4.40;;;17.20;96.70;;;;;;4981786;28;20049;-79
2023/10/14 06:12:16;;;;;;;9.57;4.60;;;17.20;96.70;;;;;;4983853;28;20128;-78
2023/10/14 06:14:46;;;;;;;5.07;4.35;;;17.20;96.70;;;;;;4977437;28;20055;-78
2023/10/14 06:17:15;;;;;;;5.88;4.43;;;17.20;96.70;;;;;;4966240;28;20066;-78
2023/10/14 06:19:45;;;;;;;7.88;4.95;;;17.20;96.70;;;;;;4965183;28;20065;-78
2023/10/14 06:22:13;;;;;;;8.77;4.70;;;17.40;96.70;;;;;;4982631;28;20111;-77
2023/10/14 06:24:42;;;;;;;8.23;4.90;;;17.50;96.70;;;;;;4964391;28;20300;-78
2023/10/14 06:27:20;;;;;;;9.65;5.47;;;17.60;96.70;;;;;;4979832;28;20035;-78
2023/10/14 06:29:51;;;;;;;11.07;5.93;;;17.60;96.70;;;;;;4979798;28;20046;-78
2023/10/14 06:32:19;;;;;;;9.77;5.00;;;17.70;96.70;;;;;;4971079;28;20071;-78
2023/10/14 06:34:59;;;;;;;9.93;6.05;;;17.70;96.70;;;;;;4966528;28;20061;-78
2023/10/14 06:37:27;;;;;;;8.85;5.57;;;17.80;96.70;;;;;;4977047;28;20482;-78
2023/10/14 06:39:56;;;;;;;9.13;5.63;;;17.90;96.70;;;;;;4953315;28;20575;-78
2023/10/14 06:42:26;;;;;;;8.30;5.80;;;17.80;96.70;;;;;;4963524;28;20055;-78
2023/10/14 06:44:57;;;;;;;7.15;5.05;;;17.70;96.70;;;;;;4962979;28;20050;-78
2023/10/14 06:47:27;;;;;;;6.63;5.53;;;17.80;96.70;;;;;;4984858;28;20046;-79
2023/10/14 06:49:57;;;;;;;7.88;5.80;;;17.80;96.70;;;;;;4971307;28;20082;-79
2023/10/14 06:52:25;;;;;;;7.25;5.10;;;17.80;96.70;;;;;;4974409;28;20497;-78
2023/10/14 06:54:53;;;;;;;9.30;5.57;;;17.60;96.70;;;;;;4958760;28;20079;-78
2023/10/14 06:57:22;;;;;;;8.15;5.68;;;17.70;96.70;;;;;;4984180;28;20046;-78
2023/10/14 06:59:51;;;;;;;8.43;5.70;;;17.70;96.70;;;;;;4974663;28;20069;-78
2023/10/14 07:02:21;;;;;;;10.63;6.13;;;17.70;96.70;;;;;;4980509;28;20097;-78
2023/10/14 07:04:50;;;;;;;8.93;6.03;;;17.70;96.70;;;;;;4969821;28;20417;-78
2023/10/14 07:07:20;;;;;;;12.15;6.35;;;17.70;96.70;;;;;;4978071;28;20420;-78
2023/10/14 07:09:48;;;;;;;15.23;6.35;;;17.70;96.70;;;;;;4968355;28;20035;-79
2023/10/14 07:12:21;;;;;;;11.10;6.68;;;17.70;96.70;;;;;;4983372;28;20141;-79
2023/10/14 07:14:49;;;;;;;10.82;6.80;;;17.80;96.70;;;;;;4983485;28;20100;-79
2023/10/14 07:17:25;;;;;;;8.60;6.65;;;17.90;96.70;;;;;;4970520;28;20074;-78
2023/10/14 07:19:53;;;;;;;10.27;6.70;;;18.00;96.70;;;;;;4987123;28;20050;-79
2023/10/14 07:22:23;;;;;;;12.05;6.75;;;18.10;96.70;;;;;;4969584;28;20524;-79
2023/10/14 07:24:52;;;;;;;10.35;7.05;;;18.10;96.70;;;;;;4975754;28;20046;-78
2023/10/14 07:27:20;;;;;;;14.07;7.50;;;18.20;96.70;;;;;;4981889;28;20050;-78
2023/10/14 07:29:49;;;;;;;11.00;7.05;;;18.10;96.70;;;;;;4986524;28;20664;-79
2023/10/14 07:32:19;;;;;;;8.40;6.75;;;18.10;96.70;;;;;;4968408;28;20046;-78
2023/10/14 07:34:53;;;;;;;9.70;7.03;;;18.10;96.70;;;;;;4963861;28;20047;-80
2023/10/14 07:37:21;;;;;;;10.55;7.38;;;18.20;96.70;;;;;;4973033;28;20075;-79
2023/10/14 07:39:53;;;;;;;9.82;7.13;;;18.20;96.70;;;;;;4973699;28;20043;-79
2023/10/14 07:42:21;;;;;;;9.07;7.38;;;18.30;96.70;;;;;;4976242;28;20058;-79
2023/10/14 07:44:52;;;;;;;12.82;7.10;;;18.30;96.70;;;;;;4964697;28;20050;-79
2023/10/14 07:47:21;;;;;;;8.82;6.93;;;18.40;96.70;;;;;;4960075;28;20050;-78
2023/10/14 07:49:50;;;;;;;12.82;8.13;;;18.40;96.70;;;;;;4981512;28;20050;-78
2023/10/14 07:52:20;;;;;;;9.75;7.03;;;18.50;96.70;;;;;;4985582;28;20133;-79
2023/10/14 07:54:51;;;;;;;12.32;7.80;;;18.60;96.70;;;;;;4973804;28;20401;-79
2023/10/14 07:57:19;;;;;;;13.32;7.47;;;18.70;96.70;;;;;;4986668;28;20050;-78
2023/10/14 07:59:50;;;;;;;11.32;8.30;;;18.80;96.70;;;;;;4994985;28;20117;-78
2023/10/14 08:02:19;;;;;;;10.63;7.90;;;18.90;96.70;;;;;;4981337;28;20050;-78
2023/10/14 08:04:47;;;;;;;9.05;8.15;;;19.00;96.70;;;;;;5004094;28;20062;-78
2023/10/14 08:07:15;;;;;;;11.65;7.70;;;19.10;96.70;;;;;;4984208;28;20052;-78
2023/10/14 08:09:44;;;;;;;11.30;8.30;;;19.20;96.70;;;;;;5002751;28;20062;-79
2023/10/14 08:12:14;;;;;;;11.32;7.70;;;19.30;96.70;;;;;;4954540;28;20060;-78
2023/10/14 08:14:44;;;;;;;10.73;8.30;;;19.30;96.70;;;;;;4987089;28;20057;-78
2023/10/14 08:17:12;;;;;;;10.95;7.85;;;19.40;96.70;;;;;;4993618;28;20562;-78
2023/10/14 08:19:41;;;;;;;10.40;7.60;;;19.40;96.70;;;;;;4984748;28;20492;-78
2023/10/14 08:22:14;;;;;;;12.95;8.40;;;19.50;96.70;;;;;;5003067;28;20472;-78
2023/10/14 08:24:45;;;;;;;12.57;8.65;;;19.60;96.70;;;;;;4983099;28;20061;-79
2023/10/14 08:27:15;;;;;;;14.57;8.38;;;19.60;96.70;;;;;;4957335;28;20073;-78
2023/10/14 08:29:42;;;;;;;14.25;8.38;;;19.60;96.70;;;;;;4987074;28;20042;-77
2023/10/14 08:32:11;;;;;;;10.43;8.38;;;19.60;96.70;;;;;;4999072;28;20042;-78
2023/10/14 08:34:40;;;;;;;12.80;8.55;;;19.70;96.70;;;;;;4997733;28;20042;-77
2023/10/14 08:37:08;;;;;;;11.85;8.23;;;19.80;96.70;;;;;;4979049;28;20044;-77
2023/10/14 08:39:38;;;;;;;10.27;8.35;;;19.90;96.70;;;;;;4996692;28;20053;-79
2023/10/14 08:42:09;;;;;;;10.40;7.15;;;20.00;96.70;;;;;;4986577;28;20049;-79
2023/10/14 08:44:44;;;;;;;9.93;6.93;;;20.20;96.70;;;;;;4973539;28;20234;-78
2023/10/14 08:47:13;;;;;;;8.82;6.50;;;20.40;96.70;;;;;;4968264;28;20148;-78
2023/10/14 08:49:42;;;;;;;9.98;6.63;;;20.60;96.70;;;;;;4977498;28;20050;-78
2023/10/14 08:52:16;;;;;;;10.63;8.55;;;20.60;96.70;;;;;;4978717;28;20475;-78
2023/10/14 08:54:46;;;;;;;14.03;9.27;;;20.70;96.70;;;;;;4924040;28;1567110;-78
2023/10/14 08:57:15;;;;;;;13.80;7.40;;;20.80;96.70;;;;;;4985947;28;20107;-78
2023/10/14 08:59:46;;;;;;;15.18;13.30;;;20.80;96.70;;;;;;5003611;28;20154;-78
2023/10/14 09:02:14;;;;;;;19.80;17.08;;;20.90;96.70;;;;;;4984880;28;20042;-77
2023/10/14 09:04:42;;;;;;;21.35;15.90;;;20.90;96.70;;;;;;4981394;28;20056;-78
2023/10/14 09:07:14;;;;;;;16.77;13.70;;;20.90;96.70;;;;;;4987738;28;20050;-78
2023/10/14 09:09:42;;;;;;;14.05;11.25;;;20.90;96.70;;;;;;5002403;28;20057;-79
2023/10/14 09:12:12;;;;;;;14.40;10.00;;;21.00;96.70;;;;;;4986100;28;20046;-78
2023/10/14 09:14:42;;;;;;;12.93;10.77;;;21.10;96.70;;;;;;4980329;28;20054;-78
2023/10/14 09:17:12;;;;;;;17.55;10.27;;;21.10;96.70;;;;;;4985343;28;20074;-79
2023/10/14 09:19:45;;;;;;;11.95;8.93;;;21.20;96.70;;;;;;4993151;28;20495;-78
2023/10/14 09:22:21;;;;;;;10.50;7.75;;;21.40;96.70;;;;;;5004975;28;20471;-78
2023/10/14 09:24:51;;;;;;;10.93;6.70;;;21.50;96.70;;;;;;4966749;28;20103;-79
2023/10/14 09:27:20;;;;;;;11.43;6.53;;;21.70;96.70;;;;;;4970828;28;20072;-79
2023/10/14 09:29:48;;;;;;;9.13;6.55;;;21.90;96.70;;;;;;4980503;28;20053;-78
2023/10/14 09:32:18;;;;;;;9.70;6.32;;;21.90;96.70;;;;;;4983456;28;20066;-78
2023/10/14 09:34:47;;;;;;;9.75;6.60;;;21.90;96.70;;;;;;4996538;28;20050;-78
2023/10/14 09:37:17;;;;;;;9.80;6.50;;;21.90;96.70;;;;;;4970948;28;20133;-78
2023/10/14 09:39:53;;;;;;;11.15;6.97;;;22.00;96.70;;;;;;4983694;28;20177;-78
2023/10/14 09:42:22;;;;;;;12.65;6.43;;;22.20;96.70;;;;;;4986969;28;20049;-78
2023/10/14 09:44:52;;;;;;;10.25;6.30;;;22.30;96.70;;;;;;4980769;28;20057;-78
2023/10/14 09:47:23;;;;;;;8.05;5.55;;;22.30;96.70;;;;;;4995397;28;20129;-77
2023/10/14 09:49:53;;;;;;;11.65;6.70;;;22.40;96.70;;;;;;4984179;28;20312;-77
2023/10/14 09:52:22;;;;;;;10.00;6.20;;;22.50;96.70;;;;;;4982485;28;20050;-77
2023/10/14 09:54:52;;;;;;;11.63;6.05;;;22.60;96.70;;;;;;4977333;28;20057;-80
2023/10/14 09:57:25;;;;;;;11.13;6.97;;;22.70;96.70;;;;;;4973888;28;20121;-79
2023/10/14 09:59:56;;;;;;;11.68;6.65;;;22.80;96.70;;;;;;4950973;28;20054;-79
2023/10/14 10:02:26;;;;;;;11.00;5.78;;;22.90;96.70;;;;;;4965960;28;20169;-77
2023/10/14 10:04:57;;;;;;;7.60;6.40;;;23.00;96.70;;;;;;4953234;28;20105;-81
2023/10/14 10:07:42;;;;;;;9.85;6.10;;;23.10;96.70;;;;;;4971770;28;20042;-78
2023/10/14 10:10:17;;;;;;;14.55;6.55;;;23.20;96.70;;;;;;4977402;28;20054;-79
2023/10/14 10:12:53;;;;;;;8.27;5.68;;;23.30;96.70;;;;;;4966489;28;20062;-78
2023/10/14 10:15:24;;;;;;;9.45;5.53;;;23.50;96.70;;;;;;4975797;28;20046;-78
2023/10/14 10:18:04;;;;;;;7.82;5.18;;;23.60;96.70;;;;;;4948891;28;20073;-78
2023/10/14 10:20:40;;;;;;;11.30;5.93;;;23.70;96.70;;;;;;4970154;28;20046;-79
2023/10/14 10:23:10;;;;;;;10.43;7.15;;;23.80;96.70;;;;;;4975441;28;20070;-78
2023/10/14 10:25:49;;;;;;;11.55;6.50;;;23.90;96.70;;;;;;4977945;28;20046;-78
2023/10/14 10:28:40;;;;;;;8.80;6.95;;;24.00;96.70;;;;;;4966765;28;20062;-78
2023/10/14 10:31:15;;;;;;;12.23;6.72;;;24.20;96.70;;;;;;4985153;28;20046;-78
2023/10/14 10:33:54;;;;;;;12.63;6.90;;;24.20;96.70;;;;;;4985110;28;20546;-77
2023/10/14 10:36:25;;;;;;;10.75;7.20;;;24.30;96.70;;;;;;4979034;28;20051;-77
2023/10/14 10:38:55;;;;;;;11.40;6.47;;;24.40;96.70;;;;;;4980674;28;20043;-78
2023/10/14 10:41:27;;;;;;;10.63;6.47;;;24.40;96.70;;;;;;4975296;28;20165;-78
2023/10/14 10:44:02;;;;;;;8.68;5.72;;;24.40;96.70;;;;;;4958243;28;20055;-79
2023/10/14 10:46:38;;;;;;;12.23;6.10;;;24.60;96.70;;;;;;4961650;28;20137;-79
2023/10/14 10:49:12;;;;;;;9.13;5.30;;;24.60;96.70;;;;;;4983120;28;20463;-79
2023/10/14 10:51:50;;;;;;;9.88;6.00;;;24.50;96.70;;;;;;4980322;28;20197;-78
2023/10/14 10:54:22;;;;;;;7.05;5.63;;;24.60;96.70;;;;;;4961867;28;20501;-78
2023/10/14 10:56:51;;;;;;;11.75;6.68;;;24.60;96.70;;;;;;4980796;28;20038;-78
2023/10/14 10:59:37;;;;;;;9.60;6.10;;;24.60;96.70;;;;;;4947883;28;20565;-78
2023/10/14 11:02:08;;;;;;;9.73;5.65;;;24.70;96.70;;;;;;4963166;28;20053;-79
2023/10/14 11:04:39;;;;;;;7.20;5.55;;;24.90;96.70;;;;;;4979441;28;20054;-79
2023/10/14 11:07:09;;;;;;;10.48;5.43;;;24.90;96.70;;;;;;4957105;28;20398;-78
2023/10/14 11:09:40;;;;;;;7.68;5.10;;;25.10;96.70;;;;;;4945824;28;20619;-78
2023/10/14 11:12:12;;;;;;;8.90;5.03;;;25.00;96.70;;;;;;4965616;28;20542;-79
2023/10/14 11:14:40;;;;;;;8.80;5.55;;;25.00;96.70;;;;;;4969064;28;20056;-78
2023/10/14 11:17:09;;;;;;;5.88;4.88;;;25.00;96.70;;;;;;4969367;28;20070;-79
2023/10/14 11:19:39;;;;;;;11.85;5.32;;;25.20;96.70;;;;;;4969384;28;20512;-78
2023/10/14 11:22:08;;;;;;;9.77;5.18;;;25.30;96.70;;;;;;4938826;28;20097;-79
2023/10/14 11:24:36;;;;;;;9.73;5.20;;;25.40;96.70;;;;;;4943707;28;20070;-79
2023/10/14 11:27:06;;;;;;;11.57;4.88;;;25.70;96.70;;;;;;4935809;28;20066;-78
2023/10/14 11:29:35;;;;;;;10.13;5.20;;;25.80;96.70;;;;;;4969752;28;20062;-78
2023/10/14 11:32:05;;;;;;;8.85;4.47;;;26.00;96.70;;;;;;4969929;28;20072;-78
2023/10/14 11:34:36;;;;;;;11.18;5.10;;;26.20;96.70;;;;;;4974560;28;20062;-79
2023/10/14 11:37:11;;;;;;;9.15;4.15;;;26.20;96.70;;;;;;4976667;28;20042;-79
2023/10/14 11:39:43;;;;;;;7.13;4.18;;;26.20;96.70;;;;;;4979275;28;20050;-78
2023/10/14 11:42:13;;;;;;;9.07;4.43;;;26.00;96.70;;;;;;4966503;28;20062;-79
2023/10/14 11:44:42;;;;;;;11.52;4.50;;;25.90;96.70;;;;;;4956406;28;20096;-78
2023/10/14 11:47:16;;;;;;;6.90;4.30;;;26.00;96.70;;;;;;4968651;28;20038;-78
2023/10/14 11:49:49;;;;;;;9.43;4.38;;;26.30;96.70;;;;;;4969361;28;20050;-78
2023/10/14 11:52:21;;;;;;;9.48;4.28;;;26.40;96.70;;;;;;4970964;28;20145;-79
2023/10/14 11:54:52;;;;;;;11.55;4.28;;;26.50;96.70;;;;;;4959442;28;20431;-78
2023/10/14 11:57:20;;;;;;;12.23;4.57;;;26.30;96.70;;;;;;5003952;28;20048;-78
2023/10/14 11:59:49;;;;;;;7.82;3.42;;;26.10;96.70;;;;;;5006958;28;20052;-79
2023/10/14 12:02:18;;;;;;;8.00;3.92;;;26.40;96.70;;;;;;4996926;28;20034;-78
2023/10/14 12:04:47;;;;;;;6.97;4.28;;;26.60;96.70;;;;;;4982755;28;21020;-79
2023/10/14 12:07:17;;;;;;;7.15;4.15;;;26.80;96.70;;;;;;4973865;28;20068;-79
2023/10/14 12:09:47;;;;;;;9.07;4.35;;;27.00;96.70;;;;;;4963444;28;20069;-79
2023/10/14 12:12:15;;;;;;;11.27;4.15;;;27.10;96.70;;;;;;4987211;28;20100;-78
2023/10/14 12:14:44;;;;;;;12.38;4.63;;;26.90;96.70;;;;;;4996356;28;20042;-79
2023/10/14 12:17:14;;;;;;;11.65;4.18;;;26.90;96.70;;;;;;4997392;28;20050;-79
2023/10/14 12:19:43;;;;;;;8.93;4.30;;;26.90;96.70;;;;;;5000797;28;20048;-78
2023/10/14 12:22:11;;;;;;;8.32;4.32;;;26.70;96.70;;;;;;4987972;28;20412;-79
2023/10/14 12:24:39;;;;;;;9.50;4.03;;;26.70;96.70;;;;;;4959111;28;20065;-77
2023/10/14 12:27:18;;;;;;;8.40;3.92;;;26.60;96.70;;;;;;4984435;28;20100;-77
2023/10/14 12:29:48;;;;;;;7.25;3.90;;;26.60;96.70;;;;;;4988615;28;20391;-80
2023/10/14 12:32:17;;;;;;;10.77;3.80;;;26.50;96.70;;;;;;4984657;28;20046;-77
2023/10/14 12:34:47;;;;;;;12.02;3.80;;;26.40;96.70;;;;;;4965520;28;20045;-77
2023/10/14 12:37:19;;;;;;;13.88;4.65;;;26.40;96.70;;;;;;4983898;28;20048;-76
2023/10/14 12:39:53;;;;;;;7.85;4.30;;;26.30;96.70;;;;;;4971189;28;20496;-76
2023/10/14 12:42:38;;;;;;;11.80;4.50;;;26.30;96.70;;;;;;4996829;28;20500;-78
2023/10/14 12:45:12;;;;;;;8.23;4.15;;;26.20;96.70;;;;;;4987923;28;20050;-76
2023/10/14 12:47:46;;;;;;;12.35;4.40;;;26.20;96.70;;;;;;4968236;28;20055;-76
2023/10/14 12:50:15;;;;;;;18.95;4.82;;;26.00;96.70;;;;;;4974480;28;20152;-76
2023/10/14 12:52:45;;;;;;;14.38;4.43;;;26.00;96.70;;;;;;4991692;28;20049;-76
2023/10/14 12:55:17;;;;;;;13.32;4.18;;;26.00;96.70;;;;;;5001724;28;20120;-76
2023/10/14 12:57:47;;;;;;;14.68;5.15;;;26.10;96.70;;;;;;4994809;28;20060;-78
2023/10/14 13:00:25;;;;;;;10.82;4.05;;;26.20;96.70;;;;;;5003608;28;20072;-77
2023/10/14 13:03:09;;;;;;;11.07;4.13;;;26.20;96.70;;;;;;4981813;28;20107;-77
2023/10/14 13:05:38;;;;;;;10.65;4.07;;;26.30;96.70;;;;;;4966920;28;20056;-79
2023/10/14 13:08:07;;;;;;;12.50;4.35;;;26.30;96.70;;;;;;5000207;28;20042;-77
2023/10/14 13:10:36;;;;;;;25.38;4.45;;;26.30;96.70;;;;;;4996597;28;20065;-77
2023/10/14 13:13:06;;;;;;;11.13;3.95;;;26.50;96.70;;;;;;4987119;28;20042;-77
2023/10/14 13:15:35;;;;;;;13.15;4.10;;;26.70;96.70;;;;;;4984917;28;20038;-77
2023/10/14 13:18:12;;;;;;;15.05;4.35;;;26.80;96.70;;;;;;4986188;28;20038;-76
2023/10/14 13:20:43;;;;;;;11.48;4.20;;;26.90;96.70;;;;;;4981270;28;20413;-77
2023/10/14 13:23:12;;;;;;;9.48;3.50;;;27.20;96.70;;;;;;4986763;28;20045;-77
2023/10/14 13:25:40;;;;;;;13.80;4.22;;;27.40;96.70;;;;;;4981009;28;20049;-77
2023/10/14 13:28:11;;;;;;;15.63;4.05;;;27.40;96.70;;;;;;4983931;28;20141;-77
2023/10/14 13:30:47;;;;;;;11.57;3.17;;;27.30;96.70;;;;;;4985936;28;20128;-77
2023/10/14 13:33:19;;;;;;;8.30;3.72;;;27.40;96.70;;;;;;4980030;28;20124;-78
2023/10/14 13:35:47;;;;;;;11.90;4.15;;;27.20;96.70;;;;;;5003579;28;20124;-77